sensor_id;sensor_type;location;lat;lon;timestamp;pressure;altitude;pressure_sealevel;temperature;humidity
43394;BME280;62479;62.642;17.954;2022-10-14T00:42:11;101167.19;;;6.41;77.31
43394;BME280;62479;62.642;17.954;2022-10-14T00:45:01;101165.25;;;6.51;76.46
43394;BME280;62479;62.642;17.954;2022-10-14T00:47:33;101164.11;;;6.35;76.86
43394;BME280;62479;62.642;17.954;2022-10-14T00:50:08;101161.17;;;6.14;76.63
43394;BME280;62479;62.642;17.954;2022-10-14T00:52:37;101164.70;;;5.92;77.12
43394;BME280;62479;62.642;17.954;2022-10-14T04:54:24;101113.19;;;6.95;74.99
43394;BME280;62479;62.642;17.954;2022-10-14T04:57:02;101111.79;;;7.23;75.20
43394;BME280;62479;62.642;17.954;2022-10-14T04:59:36;101107.54;;;7.29;75.18
43394;BME280;62479;62.642;17.954;2022-10-14T05:02:06;101106.56;;;7.24;74.99
43394;BME280;62479;62.642;17.954;2022-10-14T05:04:34;101104.50;;;7.23;74.91
43394;BME280;62479;62.642;17.954;2022-10-14T05:07:04;101098.18;;;7.29;75.02
43394;BME280;62479;62.642;17.954;2022-10-14T05:09:33;101094.23;;;7.24;75.13
43394;BME280;62479;62.642;17.954;2022-10-14T05:12:02;101094.60;;;7.06;75.38
43394;BME280;62479;62.642;17.954;2022-10-14T05:14:30;101095.79;;;7.14;75.64
43394;BME280;62479;62.642;17.954;2022-10-14T05:16:59;101092.16;;;7.23;75.32
43394;BME280;62479;62.642;17.954;2022-10-14T05:19:28;101085.99;;;7.18;75.25
43394;BME280;62479;62.642;17.954;2022-10-14T05:21:57;101085.80;;;7.11;75.20
43394;BME280;62479;62.642;17.954;2022-10-14T05:24:27;101088.18;;;7.15;75.57
43394;BME280;62479;62.642;17.954;2022-10-14T05:26:56;101090.44;;;7.09;75.62
43394;BME280;62479;62.642;17.954;2022-10-14T05:29:24;101089.44;;;7.23;75.54
43394;BME280;62479;62.642;17.954;2022-10-14T05:31:53;101089.44;;;7.28;75.49
43394;BME280;62479;62.642;17.954;2022-10-14T05:34:22;101087.85;;;7.32;75.35
43394;BME280;62479;62.642;17.954;2022-10-14T05:36:51;101085.62;;;7.36;75.30
43394;BME280;62479;62.642;17.954;2022-10-14T05:39:19;101080.68;;;7.35;75.04
43394;BME280;62479;62.642;17.954;2022-10-14T05:41:49;101075.75;;;7.47;74.87
43394;BME280;62479;62.642;17.954;2022-10-14T05:44:17;101070.95;;;7.35;74.89
43394;BME280;62479;62.642;17.954;2022-10-14T05:46:46;101076.92;;;7.38;74.95
43394;BME280;62479;62.642;17.954;2022-10-14T05:49:14;101089.45;;;7.40;75.15
43394;BME280;62479;62.642;17.954;2022-10-14T05:51:43;101087.28;;;7.31;75.29
43394;BME280;62479;62.642;17.954;2022-10-14T05:54:12;101082.84;;;7.39;74.99
43394;BME280;62479;62.642;17.954;2022-10-14T05:56:41;101081.27;;;7.45;74.91
43394;BME280;62479;62.642;17.954;2022-10-14T05:59:11;101082.63;;;7.47;75.16
43394;BME280;62479;62.642;17.954;2022-10-14T06:01:40;101082.79;;;7.50;75.12
43394;BME280;62479;62.642;17.954;2022-10-14T06:04:15;101082.80;;;7.57;74.94
43394;BME280;62479;62.642;17.954;2022-10-14T06:06:43;101084.93;;;7.45;74.81
43394;BME280;62479;62.642;17.954;2022-10-14T06:09:13;101085.45;;;7.48;74.62
43394;BME280;62479;62.642;17.954;2022-10-14T06:11:41;101086.40;;;7.60;74.64
43394;BME280;62479;62.642;17.954;2022-10-14T06:14:10;101089.64;;;7.65;74.34
43394;BME280;62479;62.642;17.954;2022-10-14T06:16:39;101090.18;;;7.89;74.03
43394;BME280;62479;62.642;17.954;2022-10-14T06:19:08;101089.19;;;7.80;73.81
43394;BME280;62479;62.642;17.954;2022-10-14T06:21:37;101088.66;;;7.88;74.01
43394;BME280;62479;62.642;17.954;2022-10-14T06:24:08;101081.26;;;7.90;74.01
43394;BME280;62479;62.642;17.954;2022-10-14T06:26:36;101067.17;;;7.89;74.12
43394;BME280;62479;62.642;17.954;2022-10-14T06:29:05;101060.40;;;7.89;74.08
43394;BME280;62479;62.642;17.954;2022-10-14T06:31:35;101062.74;;;7.69;73.63
43394;BME280;62479;62.642;17.954;2022-10-14T06:34:05;101068.62;;;7.62;73.66
43394;BME280;62479;62.642;17.954;2022-10-14T06:36:36;101071.18;;;7.71;73.91
43394;BME280;62479;62.642;17.954;2022-10-14T06:39:05;101069.56;;;7.59;74.07
43394;BME280;62479;62.642;17.954;2022-10-14T06:41:33;101068.29;;;7.58;74.01
43394;BME280;62479;62.642;17.954;2022-10-14T06:44:02;101065.96;;;7.62;73.98
43394;BME280;62479;62.642;17.954;2022-10-14T06:46:31;101060.61;;;7.62;73.81
43394;BME280;62479;62.642;17.954;2022-10-14T06:49:00;101054.96;;;7.64;73.58
43394;BME280;62479;62.642;17.954;2022-10-14T06:51:29;101053.45;;;7.62;73.43
43394;BME280;62479;62.642;17.954;2022-10-14T06:53:58;101057.33;;;7.70;73.23
43394;BME280;62479;62.642;17.954;2022-10-14T06:56:26;101063.27;;;7.98;73.26
43394;BME280;62479;62.642;17.954;2022-10-14T06:58:56;101065.16;;;8.04;72.94
43394;BME280;62479;62.642;17.954;2022-10-14T07:01:25;101070.02;;;7.94;72.87
43394;BME280;62479;62.642;17.954;2022-10-14T07:03:54;101068.78;;;7.96;72.89
43394;BME280;62479;62.642;17.954;2022-10-14T07:06:23;101070.17;;;7.93;72.92
43394;BME280;62479;62.642;17.954;2022-10-14T07:08:52;101071.94;;;8.04;73.12
43394;BME280;62479;62.642;17.954;2022-10-14T07:11:21;101067.46;;;8.05;73.09
43394;BME280;62479;62.642;17.954;2022-10-14T07:13:50;101063.62;;;8.39;72.62
43394;BME280;62479;62.642;17.954;2022-10-14T07:16:18;101058.77;;;8.78;71.71
43394;BME280;62479;62.642;17.954;2022-10-14T07:18:48;101056.02;;;9.15;71.21
43394;BME280;62479;62.642;17.954;2022-10-14T07:21:17;101057.87;;;9.21;70.83
43394;BME280;62479;62.642;17.954;2022-10-14T07:23:47;101067.46;;;9.19;69.49
43394;BME280;62479;62.642;17.954;2022-10-14T07:26:15;101074.46;;;9.10;68.99
43394;BME280;62479;62.642;17.954;2022-10-14T07:28:44;101072.16;;;9.08;70.22
43394;BME280;62479;62.642;17.954;2022-10-14T07:31:13;101072.83;;;9.06;70.00
43394;BME280;62479;62.642;17.954;2022-10-14T07:33:42;101070.38;;;9.04;70.01
43394;BME280;62479;62.642;17.954;2022-10-14T07:36:14;101066.55;;;9.07;70.18
43394;BME280;62479;62.642;17.954;2022-10-14T07:38:44;101060.92;;;9.13;70.38
43394;BME280;62479;62.642;17.954;2022-10-14T07:41:15;101055.74;;;8.98;70.58
43394;BME280;62479;62.642;17.954;2022-10-14T07:43:47;101053.22;;;9.16;70.43
43394;BME280;62479;62.642;17.954;2022-10-14T07:46:18;101062.19;;;9.22;70.18
43394;BME280;62479;62.642;17.954;2022-10-14T07:48:48;101071.00;;;9.22;69.60
43394;BME280;62479;62.642;17.954;2022-10-14T07:51:17;101069.89;;;9.28;69.66
43394;BME280;62479;62.642;17.954;2022-10-14T07:53:46;101069.87;;;9.28;68.94
43394;BME280;62479;62.642;17.954;2022-10-14T07:56:15;101068.79;;;9.35;69.25
43394;BME280;62479;62.642;17.954;2022-10-14T07:58:43;101067.26;;;9.39;69.09
43394;BME280;62479;62.642;17.954;2022-10-14T08:01:12;101060.12;;;9.47;68.98
43394;BME280;62479;62.642;17.954;2022-10-14T08:03:41;101058.76;;;9.65;69.12
43394;BME280;62479;62.642;17.954;2022-10-14T08:06:10;101060.13;;;9.57;68.69
43394;BME280;62479;62.642;17.954;2022-10-14T08:08:41;101063.02;;;9.48;68.77
43394;BME280;62479;62.642;17.954;2022-10-14T08:11:12;101067.32;;;9.39;68.80
43394;BME280;62479;62.642;17.954;2022-10-14T08:13:43;101071.56;;;9.32;68.64
43394;BME280;62479;62.642;17.954;2022-10-14T08:16:14;101069.44;;;9.34;69.16
43394;BME280;62479;62.642;17.954;2022-10-14T08:18:44;101060.89;;;9.26;69.58
43394;BME280;62479;62.642;17.954;2022-10-14T08:21:15;101061.34;;;9.23;69.72
43394;BME280;62479;62.642;17.954;2022-10-14T08:23:44;101053.32;;;9.21;69.52
43394;BME280;62479;62.642;17.954;2022-10-14T08:26:18;101055.66;;;9.20;69.56
43394;BME280;62479;62.642;17.954;2022-10-14T08:28:48;101048.48;;;9.14;69.78
43394;BME280;62479;62.642;17.954;2022-10-14T08:36:29;101042.53;;;9.64;70.07
43394;BME280;62479;62.642;17.954;2022-10-14T08:38:58;101045.18;;;9.71;69.63
43394;BME280;62479;62.642;17.954;2022-10-14T08:41:42;101039.86;;;9.80;69.20
43394;BME280;62479;62.642;17.954;2022-10-14T08:44:19;101043.96;;;9.88;68.68
43394;BME280;62479;62.642;17.954;2022-10-14T08:46:51;101045.49;;;9.72;69.34
43394;BME280;62479;62.642;17.954;2022-10-14T08:49:26;101049.97;;;9.81;68.94
43394;BME280;62479;62.642;17.954;2022-10-14T08:52:01;101049.26;;;9.61;69.04
43394;BME280;62479;62.642;17.954;2022-10-14T08:54:35;101048.53;;;9.59;69.40
43394;BME280;62479;62.642;17.954;2022-10-14T08:57:12;101044.39;;;9.31;69.64
43394;BME280;62479;62.642;17.954;2022-10-14T08:59:43;101052.29;;;9.29;70.19
43394;BME280;62479;62.642;17.954;2022-10-14T09:02:20;101052.91;;;9.24;70.54
43394;BME280;62479;62.642;17.954;2022-10-14T09:04:52;101054.69;;;9.16;70.19
43394;BME280;62479;62.642;17.954;2022-10-14T09:07:21;101056.10;;;9.25;70.48
43394;BME280;62479;62.642;17.954;2022-10-14T09:09:53;101056.65;;;9.11;70.71
43394;BME280;62479;62.642;17.954;2022-10-14T09:12:27;101053.48;;;9.05;70.90
43394;BME280;62479;62.642;17.954;2022-10-14T09:15:02;101055.01;;;9.10;70.89
43394;BME280;62479;62.642;17.954;2022-10-14T09:17:36;101052.01;;;8.96;71.17
43394;BME280;62479;62.642;17.954;2022-10-14T09:20:30;101045.55;;;9.07;71.22
43394;BME280;62479;62.642;17.954;2022-10-14T09:23:10;101040.77;;;9.22;71.18
43394;BME280;62479;62.642;17.954;2022-10-14T09:25:46;101042.09;;;9.17;71.06
43394;BME280;62479;62.642;17.954;2022-10-14T09:28:17;101038.79;;;9.26;70.88
43394;BME280;62479;62.642;17.954;2022-10-14T09:30:46;101034.98;;;9.40;70.41
43394;BME280;62479;62.642;17.954;2022-10-14T09:33:16;101036.15;;;9.21;70.74
43394;BME280;62479;62.642;17.954;2022-10-14T09:35:46;101039.39;;;9.05;70.94
43394;BME280;62479;62.642;17.954;2022-10-14T09:38:15;101037.18;;;9.10;71.31
43394;BME280;62479;62.642;17.954;2022-10-14T09:40:47;101031.89;;;9.10;71.56
43394;BME280;62479;62.642;17.954;2022-10-14T09:43:18;101034.02;;;9.04;71.41
43394;BME280;62479;62.642;17.954;2022-10-14T09:45:50;101034.45;;;9.06;71.01
43394;BME280;62479;62.642;17.954;2022-10-14T09:48:29;101034.90;;;9.08;71.00
43394;BME280;62479;62.642;17.954;2022-10-14T09:51:00;101033.19;;;9.06;71.22
43394;BME280;62479;62.642;17.954;2022-10-14T09:53:32;101031.40;;;9.14;71.62
43394;BME280;62479;62.642;17.954;2022-10-14T09:56:02;101028.08;;;9.04;70.97
43394;BME280;62479;62.642;17.954;2022-10-14T09:58:35;101025.21;;;9.18;70.81
43394;BME280;62479;62.642;17.954;2022-10-14T10:03:28;101016.83;;;9.15;70.66
43394;BME280;62479;62.642;17.954;2022-10-14T10:06:05;101017.72;;;9.41;69.90
43394;BME280;62479;62.642;17.954;2022-10-14T10:08:37;101018.87;;;9.55;69.80
43394;BME280;62479;62.642;17.954;2022-10-14T10:11:10;101015.45;;;9.53;70.86
43394;BME280;62479;62.642;17.954;2022-10-14T10:13:41;101018.10;;;9.45;70.69
43394;BME280;62479;62.642;17.954;2022-10-14T10:16:20;101019.24;;;9.58;70.83
43394;BME280;62479;62.642;17.954;2022-10-14T10:18:51;101022.30;;;9.42;70.53
43394;BME280;62479;62.642;17.954;2022-10-14T10:21:23;101017.63;;;9.41;70.86
43394;BME280;62479;62.642;17.954;2022-10-14T10:23:55;101013.22;;;9.30;70.83
43394;BME280;62479;62.642;17.954;2022-10-14T10:26:26;101004.85;;;9.47;71.02
43394;BME280;62479;62.642;17.954;2022-10-14T10:28:55;100998.49;;;9.57;70.50
43394;BME280;62479;62.642;17.954;2022-10-14T10:32:05;100990.86;;;9.80;70.63
43394;BME280;62479;62.642;17.954;2022-10-14T10:35:04;100988.03;;;10.27;69.16
43394;BME280;62479;62.642;17.954;2022-10-14T10:37:40;100983.35;;;10.29;68.12
43394;BME280;62479;62.642;17.954;2022-10-14T10:40:30;100986.85;;;10.30;68.02
43394;BME280;62479;62.642;17.954;2022-10-14T10:43:12;100985.39;;;10.52;67.39
43394;BME280;62479;62.642;17.954;2022-10-14T10:45:55;100986.90;;;10.28;67.96
43394;BME280;62479;62.642;17.954;2022-10-14T10:48:31;100994.76;;;10.07;67.68
43394;BME280;62479;62.642;17.954;2022-10-14T10:51:04;100998.15;;;9.87;68.59
43394;BME280;62479;62.642;17.954;2022-10-14T10:53:47;100986.43;;;9.91;68.67
43394;BME280;62479;62.642;17.954;2022-10-14T10:56:29;100985.57;;;9.69;68.91
43394;BME280;62479;62.642;17.954;2022-10-14T10:59:16;100982.80;;;9.84;69.87
43394;BME280;62479;62.642;17.954;2022-10-14T11:01:57;100982.46;;;10.03;69.01
43394;BME280;62479;62.642;17.954;2022-10-14T11:04:32;100977.51;;;10.20;68.40
43394;BME280;62479;62.642;17.954;2022-10-14T11:07:10;100976.41;;;10.18;68.19
43394;BME280;62479;62.642;17.954;2022-10-14T11:09:52;100968.36;;;10.24;68.40
43394;BME280;62479;62.642;17.954;2022-10-14T11:12:27;100968.65;;;10.49;68.07
43394;BME280;62479;62.642;17.954;2022-10-14T11:15:07;100970.34;;;10.53;66.90
43394;BME280;62479;62.642;17.954;2022-10-14T11:17:46;100963.31;;;10.77;66.32
43394;BME280;62479;62.642;17.954;2022-10-14T11:20:26;100962.12;;;11.02;65.41
43394;BME280;62479;62.642;17.954;2022-10-14T11:23:09;100962.06;;;10.91;64.88
43394;BME280;62479;62.642;17.954;2022-10-14T11:25:44;100957.72;;;10.70;65.28
43394;BME280;62479;62.642;17.954;2022-10-14T11:28:20;100959.33;;;10.76;65.43
43394;BME280;62479;62.642;17.954;2022-10-14T11:30:57;100957.36;;;10.89;65.21
43394;BME280;62479;62.642;17.954;2022-10-14T11:33:37;100960.25;;;10.92;65.05
43394;BME280;62479;62.642;17.954;2022-10-14T11:36:18;100957.26;;;11.14;65.06
43394;BME280;62479;62.642;17.954;2022-10-14T11:39:01;100961.28;;;11.01;64.53
43394;BME280;62479;62.642;17.954;2022-10-14T11:41:41;100963.61;;;11.13;64.17
43394;BME280;62479;62.642;17.954;2022-10-14T11:44:20;100963.93;;;11.01;64.42
43394;BME280;62479;62.642;17.954;2022-10-14T11:46:56;100960.57;;;10.86;64.29
43394;BME280;62479;62.642;17.954;2022-10-14T11:49:28;100959.68;;;10.81;64.69
43394;BME280;62479;62.642;17.954;2022-10-14T11:52:00;100962.53;;;10.59;64.79
43394;BME280;62479;62.642;17.954;2022-10-14T11:54:33;100958.06;;;10.41;65.53
43394;BME280;62479;62.642;17.954;2022-10-14T11:57:05;100953.19;;;10.27;65.79
43394;BME280;62479;62.642;17.954;2022-10-14T11:59:38;100948.05;;;10.07;66.93
43394;BME280;62479;62.642;17.954;2022-10-14T12:02:18;100953.46;;;10.16;67.12
43394;BME280;62479;62.642;17.954;2022-10-14T12:04:52;100955.42;;;9.90;66.85
43394;BME280;62479;62.642;17.954;2022-10-14T12:07:27;100955.34;;;9.77;67.42
43394;BME280;62479;62.642;17.954;2022-10-14T12:10:01;100951.81;;;9.70;67.65
43394;BME280;62479;62.642;17.954;2022-10-14T12:12:31;100952.22;;;9.52;67.83
43394;BME280;62479;62.642;17.954;2022-10-14T12:15:05;100954.12;;;9.41;68.05
43394;BME280;62479;62.642;17.954;2022-10-14T12:17:37;100949.59;;;9.35;68.66
43394;BME280;62479;62.642;17.954;2022-10-14T12:20:18;100947.05;;;9.46;69.19
43394;BME280;62479;62.642;17.954;2022-10-14T12:22:51;100943.67;;;9.54;68.68
43394;BME280;62479;62.642;17.954;2022-10-14T12:25:23;100940.42;;;9.47;69.23
43394;BME280;62479;62.642;17.954;2022-10-14T12:27:54;100937.81;;;9.53;69.31
43394;BME280;62479;62.642;17.954;2022-10-14T12:30:33;100936.52;;;9.58;69.20
43394;BME280;62479;62.642;17.954;2022-10-14T12:33:08;100937.10;;;9.64;68.90
43394;BME280;62479;62.642;17.954;2022-10-14T12:35:49;100937.30;;;9.46;68.44
43394;BME280;62479;62.642;17.954;2022-10-14T12:38:18;100935.57;;;9.37;68.69
43394;BME280;62479;62.642;17.954;2022-10-14T12:40:47;100933.22;;;9.44;68.98
43394;BME280;62479;62.642;17.954;2022-10-14T12:43:25;100929.72;;;9.59;68.99
43394;BME280;62479;62.642;17.954;2022-10-14T12:46:01;100925.49;;;9.67;68.34
43394;BME280;62479;62.642;17.954;2022-10-14T12:48:32;100927.59;;;9.84;68.04
43394;BME280;62479;62.642;17.954;2022-10-14T12:51:09;100930.94;;;9.64;67.77
43394;BME280;62479;62.642;17.954;2022-10-14T12:53:47;100926.82;;;9.48;68.07
43394;BME280;62479;62.642;17.954;2022-10-14T12:56:37;100925.79;;;9.55;68.27
43394;BME280;62479;62.642;17.954;2022-10-14T12:59:20;100929.60;;;9.44;68.61
43394;BME280;62479;62.642;17.954;2022-10-14T21:29:34;100757.25;;;5.74;79.40
43394;BME280;62479;62.642;17.954;2022-10-14T21:32:04;100756.31;;;5.65;79.40
43394;BME280;62479;62.642;17.954;2022-10-14T21:34:32;100755.93;;;5.70;79.33
43394;BME280;62479;62.642;17.954;2022-10-14T21:37:02;100758.70;;;5.70;79.33
43394;BME280;62479;62.642;17.954;2022-10-14T21:39:30;100757.30;;;5.57;79.34
43394;BME280;62479;62.642;17.954;2022-10-14T21:42:00;100756.21;;;5.47;79.46
43394;BME280;62479;62.642;17.954;2022-10-14T21:44:29;100753.67;;;5.53;79.76
43394;BME280;62479;62.642;17.954;2022-10-14T21:46:58;100756.26;;;5.36;79.53
43394;BME280;62479;62.642;17.954;2022-10-14T21:49:28;100753.58;;;5.48;79.56
43394;BME280;62479;62.642;17.954;2022-10-14T21:51:57;100752.05;;;5.51;79.42
43394;BME280;62479;62.642;17.954;2022-10-14T21:54:27;100750.39;;;5.49;79.48
43394;BME280;62479;62.642;17.954;2022-10-14T21:56:55;100749.43;;;5.48;79.40
43394;BME280;62479;62.642;17.954;2022-10-14T21:59:25;100752.53;;;5.55;79.44
